Time;durP1;ratioP1;P1;durP2;ratioP2;P2;SDS_P1;SDS_P2;PMS_P1;PMS_P2;Temp;Humidity;BMP_temperature;BMP_pressure;BME280_temperature;BME280_humidity;BME280_pressure;Samples;Min_cycle;Max_cycle;Signal;HPM_P1;HPM_P2
2023/12/05 00:00:57;;;;;;;12.65;7.53;;;;;;;;;;1923472;74;21207;-69
2023/12/05 00:03:26;;;;;;;12.78;7.50;;;;;;;;;;1923590;73;21652;-69
2023/12/05 00:05:55;;;;;;;11.35;7.17;;;;;;;;;;1923470;73;21217;-69
2023/12/05 00:08:23;;;;;;;11.95;7.45;;;;;;;;;;1923475;74;21267;-69
2023/12/05 00:10:52;;;;;;;11.25;6.87;;;;;;;;;;1923450;73;21393;-69
2023/12/05 00:13:21;;;;;;;10.05;6.25;;;;;;;;;;1923477;74;21252;-69
2023/12/05 00:15:49;;;;;;;12.10;7.05;;;;;;;;;;1923472;74;21270;-69
2023/12/05 00:18:18;;;;;;;15.03;8.28;;;;;;;;;;1923454;73;21147;-69
2023/12/05 00:20:47;;;;;;;11.63;7.08;;;;;;;;;;1923503;74;21273;-69
2023/12/05 00:23:16;;;;;;;11.30;6.87;;;;;;;;;;1923422;73;21089;-69
2023/12/05 00:25:45;;;;;;;10.85;6.62;;;;;;;;;;1923459;73;21267;-69
2023/12/05 00:28:14;;;;;;;10.80;6.42;;;;;;;;;;1923536;73;21114;-70
2023/12/05 00:30:43;;;;;;;10.58;6.45;;;;;;;;;;1923568;73;21308;-69
2023/12/05 00:33:12;;;;;;;10.75;6.97;;;;;;;;;;1923502;74;21148;-69
2023/12/05 00:35:41;;;;;;;11.68;6.97;;;;;;;;;;1923531;73;21220;-69
2023/12/05 00:38:09;;;;;;;9.45;6.22;;;;;;;;;;1923429;74;21270;-69
2023/12/05 00:40:38;;;;;;;10.82;7.08;;;;;;;;;;1923595;74;21080;-69
2023/12/05 00:43:06;;;;;;;11.78;7.17;;;;;;;;;;1923429;74;21213;-69
2023/12/05 00:45:35;;;;;;;11.80;7.75;;;;;;;;;;1923484;74;21281;-69
2023/12/05 00:48:04;;;;;;;11.45;6.95;;;;;;;;;;1923402;73;21259;-69
2023/12/05 00:50:33;;;;;;;13.03;8.28;;;;;;;;;;1923426;74;21208;-69
2023/12/05 00:53:01;;;;;;;14.80;8.55;;;;;;;;;;1923594;74;21064;-69
2023/12/05 00:55:30;;;;;;;14.58;7.97;;;;;;;;;;1923497;74;21180;-69
2023/12/05 00:57:59;;;;;;;15.90;7.65;;;;;;;;;;1923406;74;21199;-69
2023/12/05 01:00:27;;;;;;;11.65;7.85;;;;;;;;;;1923458;73;21329;-69
2023/12/05 01:02:56;;;;;;;9.90;6.12;;;;;;;;;;1923379;73;21128;-70
2023/12/05 01:05:25;;;;;;;11.65;7.62;;;;;;;;;;1923588;74;21212;-69
2023/12/05 01:07:54;;;;;;;10.03;6.45;;;;;;;;;;1923422;74;21735;-69
2023/12/05 01:10:22;;;;;;;9.45;6.25;;;;;;;;;;1923469;74;21199;-69
2023/12/05 01:12:51;;;;;;;9.28;7.03;;;;;;;;;;1923411;74;21208;-69
2023/12/05 01:15:20;;;;;;;10.30;6.75;;;;;;;;;;1923452;74;21215;-69
2023/12/05 01:17:49;;;;;;;10.30;6.58;;;;;;;;;;1923371;74;21196;-69
2023/12/05 01:20:17;;;;;;;10.25;6.33;;;;;;;;;;1923424;74;21188;-69
2023/12/05 01:22:46;;;;;;;12.15;6.80;;;;;;;;;;1923365;74;21156;-69
2023/12/05 01:25:14;;;;;;;9.83;6.30;;;;;;;;;;1923456;74;21128;-69
2023/12/05 01:27:43;;;;;;;10.55;6.62;;;;;;;;;;1923387;74;21151;-65
2023/12/05 01:30:13;;;;;;;11.05;7.05;;;;;;;;;;1923485;74;21140;-69
2023/12/05 01:32:41;;;;;;;11.10;7.03;;;;;;;;;;1923504;74;21205;-69
2023/12/05 01:35:10;;;;;;;9.73;6.40;;;;;;;;;;1923447;74;21251;-69
2023/12/05 01:37:39;;;;;;;9.35;6.05;;;;;;;;;;1923365;74;21271;-69
2023/12/05 01:40:09;;;;;;;10.85;7.42;;;;;;;;;;1923413;73;21385;-69
2023/12/05 01:42:38;;;;;;;13.43;7.95;;;;;;;;;;1923353;73;21325;-69
2023/12/05 01:45:07;;;;;;;10.65;7.12;;;;;;;;;;1923421;74;21199;-69
2023/12/05 01:47:36;;;;;;;13.75;8.18;;;;;;;;;;1923395;74;21331;-69
2023/12/05 01:50:05;;;;;;;12.95;7.60;;;;;;;;;;1923537;73;21238;-69
2023/12/05 01:52:35;;;;;;;14.78;7.17;;;;;;;;;;1923378;73;21843;-69
2023/12/05 01:55:04;;;;;;;10.88;6.55;;;;;;;;;;1923412;73;21192;-69
2023/12/05 01:57:33;;;;;;;11.33;7.12;;;;;;;;;;1923441;73;21302;-69
2023/12/05 02:00:04;;;;;;;12.23;6.65;;;;;;;;;;1923366;74;21358;-69
2023/12/05 02:02:35;;;;;;;9.45;7.03;;;;;;;;;;1921920;74;21659;-69
2023/12/05 02:05:04;;;;;;;10.93;7.10;;;;;;;;;;1923369;74;21311;-69
2023/12/05 02:07:33;;;;;;;10.40;6.47;;;;;;;;;;1923395;74;21255;-69
2023/12/05 02:10:02;;;;;;;8.30;5.60;;;;;;;;;;1923494;74;21302;-69
2023/12/05 02:12:30;;;;;;;8.58;5.40;;;;;;;;;;1923381;74;21207;-69
2023/12/05 02:14:59;;;;;;;10.82;7.17;;;;;;;;;;1923537;73;21148;-69
2023/12/05 02:17:32;;;;;;;11.28;6.72;;;;;;;;;;1923458;74;21247;-69
2023/12/05 02:20:08;;;;;;;10.65;6.40;;;;;;;;;;1923587;74;21299;-69
2023/12/05 02:22:41;;;;;;;9.73;5.15;;;;;;;;;;1865003;74;21251;-69
2023/12/05 02:25:10;;;;;;;9.95;5.72;;;;;;;;;;1921144;74;21255;-69
2023/12/05 02:27:41;;;;;;;9.43;6.05;;;;;;;;;;1923614;74;21192;-69
2023/12/05 02:30:11;;;;;;;10.23;6.53;;;;;;;;;;1936305;73;21329;-69
2023/12/05 02:32:40;;;;;;;11.50;6.67;;;;;;;;;;1939373;74;21136;-69
2023/12/05 02:35:29;;;;;;;7.95;6.10;;;;;;;;;;1875526;75;21233;-68
2023/12/05 02:38:05;;;;;;;8.53;5.25;;;;;;;;;;1875525;76;21356;-69
2023/12/05 02:40:35;;;;;;;9.43;5.70;;;;;;;;;;1860985;76;21222;-68
2023/12/05 02:43:05;;;;;;;8.13;5.90;;;;;;;;;;1875485;76;21355;-68
2023/12/05 02:45:34;;;;;;;10.68;6.67;;;;;;;;;;1875713;76;21147;-69
2023/12/05 02:48:03;;;;;;;10.93;6.90;;;;;;;;;;1875524;76;21371;-69
2023/12/05 02:50:31;;;;;;;9.15;5.67;;;;;;;;;;1875558;76;21285;-68
2023/12/05 02:53:00;;;;;;;8.05;5.67;;;;;;;;;;1875652;76;21273;-69
2023/12/05 02:55:29;;;;;;;12.37;6.70;;;;;;;;;;1875585;75;21165;-69
2023/12/05 02:57:58;;;;;;;9.45;6.28;;;;;;;;;;1875497;76;21165;-69
2023/12/05 03:00:27;;;;;;;12.85;7.47;;;;;;;;;;1875529;75;21347;-69
2023/12/05 03:02:55;;;;;;;9.58;5.90;;;;;;;;;;1875611;75;21228;-69
2023/12/05 03:05:24;;;;;;;10.25;7.17;;;;;;;;;;1875607;76;21670;-68
2023/12/05 03:07:53;;;;;;;11.97;7.42;;;;;;;;;;1875569;75;21115;-69
2023/12/05 03:10:22;;;;;;;9.33;6.72;;;;;;;;;;1875667;76;21149;-69
2023/12/05 03:12:50;;;;;;;11.65;7.28;;;;;;;;;;1875515;75;21123;-68
2023/12/05 03:15:19;;;;;;;10.68;5.53;;;;;;;;;;1875539;76;21278;-68
2023/12/05 03:17:47;;;;;;;10.28;6.62;;;;;;;;;;1875512;75;21283;-69
2023/12/05 03:20:16;;;;;;;12.82;8.53;;;;;;;;;;1875502;76;21778;-69
2023/12/05 03:22:45;;;;;;;8.80;5.95;;;;;;;;;;1875566;76;21279;-68
2023/12/05 03:25:14;;;;;;;10.95;7.35;;;;;;;;;;1875732;76;21084;-68
2023/12/05 03:27:43;;;;;;;15.75;8.45;;;;;;;;;;1875674;75;21155;-68
2023/12/05 03:30:12;;;;;;;14.30;8.05;;;;;;;;;;1875541;76;21290;-68
2023/12/05 03:32:40;;;;;;;16.80;8.65;;;;;;;;;;1875572;76;21224;-68
2023/12/05 03:35:09;;;;;;;10.85;8.30;;;;;;;;;;1893509;75;21385;-68
2023/12/05 03:37:38;;;;;;;15.93;9.38;;;;;;;;;;1900835;75;21108;-68
2023/12/05 03:40:07;;;;;;;14.20;6.47;;;;;;;;;;1900937;74;21160;-68
2023/12/05 03:42:36;;;;;;;12.60;7.83;;;;;;;;;;1900795;75;21291;-68
2023/12/05 03:45:05;;;;;;;14.70;8.83;;;;;;;;;;1900852;74;21267;-68
2023/12/05 03:47:34;;;;;;;12.13;7.72;;;;;;;;;;1900776;75;21307;-68
2023/12/05 03:50:03;;;;;;;12.25;7.97;;;;;;;;;;1900968;75;21264;-68
2023/12/05 03:52:31;;;;;;;14.45;9.10;;;;;;;;;;1900849;74;21273;-68
2023/12/05 03:55:00;;;;;;;13.55;8.55;;;;;;;;;;1900938;75;21273;-68
2023/12/05 03:57:29;;;;;;;14.05;8.50;;;;;;;;;;1900812;75;21100;-69
2023/12/05 03:59:58;;;;;;;14.83;8.73;;;;;;;;;;1900945;74;21200;-68
2023/12/05 04:02:26;;;;;;;16.77;9.08;;;;;;;;;;1900827;75;21173;-68
2023/12/05 04:04:55;;;;;;;17.95;8.83;;;;;;;;;;1900845;75;21204;-68
2023/12/05 04:07:24;;;;;;;13.05;7.17;;;;;;;;;;1900837;75;21236;-68
2023/12/05 04:09:53;;;;;;;15.98;8.88;;;;;;;;;;1900851;75;21311;-68
2023/12/05 04:12:21;;;;;;;19.20;8.48;;;;;;;;;;1900827;75;21355;-68
2023/12/05 04:14:50;;;;;;;16.25;9.13;;;;;;;;;;1900866;75;21040;-68
2023/12/05 04:17:19;;;;;;;19.98;9.83;;;;;;;;;;1900771;75;21355;-68
2023/12/05 04:19:48;;;;;;;14.25;8.95;;;;;;;;;;1900867;75;21206;-68
2023/12/05 04:22:16;;;;;;;14.85;8.53;;;;;;;;;;1900911;75;21092;-68
2023/12/05 04:24:45;;;;;;;12.45;8.95;;;;;;;;;;1900833;75;21378;-68
2023/12/05 04:27:13;;;;;;;9.20;5.87;;;;;;;;;;1900858;74;21291;-68
2023/12/05 04:29:43;;;;;;;14.18;8.80;;;;;;;;;;1900841;74;21220;-68
2023/12/05 04:32:12;;;;;;;17.25;8.10;;;;;;;;;;1900815;74;21208;-67
2023/12/05 04:34:43;;;;;;;11.83;6.90;;;;;;;;;;1900866;74;21270;-67
2023/12/05 04:37:11;;;;;;;13.72;7.53;;;;;;;;;;1900816;74;21076;-68
2023/12/05 04:39:40;;;;;;;14.40;7.90;;;;;;;;;;1900788;74;21133;-67
2023/12/05 04:42:09;;;;;;;15.68;9.45;;;;;;;;;;1900759;75;21222;-68
2023/12/05 04:44:37;;;;;;;15.45;8.88;;;;;;;;;;1900785;75;21354;-67
2023/12/05 04:47:06;;;;;;;14.45;9.13;;;;;;;;;;1900785;75;21134;-68
2023/12/05 04:49:35;;;;;;;12.95;7.40;;;;;;;;;;1900878;74;21131;-68
2023/12/05 04:52:04;;;;;;;15.45;8.18;;;;;;;;;;1900773;75;21290;-67
2023/12/05 04:54:32;;;;;;;13.05;7.78;;;;;;;;;;1900861;75;21234;-68
2023/12/05 04:57:01;;;;;;;15.80;9.95;;;;;;;;;;1900789;75;21209;-68
2023/12/05 04:59:30;;;;;;;15.23;8.30;;;;;;;;;;1900722;74;21309;-68
2023/12/05 05:01:59;;;;;;;13.93;8.00;;;;;;;;;;1900744;74;21188;-67
2023/12/05 05:04:28;;;;;;;15.78;8.50;;;;;;;;;;1900954;74;21277;-67
2023/12/05 05:06:56;;;;;;;24.00;14.35;;;;;;;;;;1900881;75;21135;-67
2023/12/05 05:09:25;;;;;;;21.80;11.05;;;;;;;;;;1900790;75;21163;-67
2023/12/05 05:11:54;;;;;;;15.70;7.65;;;;;;;;;;1900761;74;21160;-67
2023/12/05 05:14:23;;;;;;;14.00;8.18;;;;;;;;;;1900866;75;21152;-67
2023/12/05 05:16:51;;;;;;;12.60;7.42;;;;;;;;;;1900714;75;21221;-67
2023/12/05 05:19:20;;;;;;;14.23;8.43;;;;;;;;;;1900674;74;21367;-68
2023/12/05 05:21:49;;;;;;;13.72;8.13;;;;;;;;;;1900980;75;21140;-67
2023/12/05 05:24:17;;;;;;;13.03;7.70;;;;;;;;;;1900850;75;21162;-67
2023/12/05 05:26:46;;;;;;;14.70;9.70;;;;;;;;;;1900632;75;21208;-67
2023/12/05 05:29:14;;;;;;;16.05;9.65;;;;;;;;;;1900781;74;21304;-67
2023/12/05 05:31:43;;;;;;;17.30;8.13;;;;;;;;;;1900737;74;21216;-67
2023/12/05 05:34:12;;;;;;;15.40;7.87;;;;;;;;;;1900715;75;21225;-67
2023/12/05 05:36:41;;;;;;;16.17;9.25;;;;;;;;;;1877392;75;21185;-67
2023/12/05 05:39:10;;;;;;;20.00;12.03;;;;;;;;;;1875452;75;21061;-67
2023/12/05 05:41:39;;;;;;;26.50;13.50;;;;;;;;;;1875267;76;21117;-67
2023/12/05 05:44:07;;;;;;;16.07;9.75;;;;;;;;;;1875469;76;21121;-67
2023/12/05 05:46:36;;;;;;;14.63;7.35;;;;;;;;;;1875390;76;21223;-67
2023/12/05 05:49:04;;;;;;;21.37;13.50;;;;;;;;;;1875658;76;21254;-67
2023/12/05 05:51:33;;;;;;;18.35;10.48;;;;;;;;;;1875518;76;21224;-67
2023/12/05 05:54:02;;;;;;;13.03;8.98;;;;;;;;;;1875611;75;21093;-67
2023/12/05 05:56:31;;;;;;;15.65;8.90;;;;;;;;;;1875540;76;21157;-67
2023/12/05 05:58:59;;;;;;;19.65;10.50;;;;;;;;;;1875453;76;21111;-67
2023/12/05 06:01:28;;;;;;;13.43;8.13;;;;;;;;;;1875410;76;21048;-67
2023/12/05 06:03:57;;;;;;;13.58;8.98;;;;;;;;;;1875443;75;21037;-67
2023/12/05 06:06:25;;;;;;;10.13;6.45;;;;;;;;;;1875512;76;21041;-67
2023/12/05 06:08:55;;;;;;;11.43;7.00;;;;;;;;;;1875579;76;21077;-67
2023/12/05 06:11:24;;;;;;;9.28;5.45;;;;;;;;;;1875507;75;21060;-68
2023/12/05 06:13:54;;;;;;;10.40;6.92;;;;;;;;;;1875551;75;21111;-67
2023/12/05 06:16:23;;;;;;;6.35;5.20;;;;;;;;;;1875491;75;21024;-67
2023/12/05 06:18:59;;;;;;;9.65;6.50;;;;;;;;;;1875442;76;21119;-67
2023/12/05 06:21:30;;;;;;;9.73;6.53;;;;;;;;;;1944256;72;21069;-67
2023/12/05 06:23:59;;;;;;;10.60;7.12;;;;;;;;;;2002220;72;21156;-67
2023/12/05 06:26:28;;;;;;;3.70;3.02;;;;;;;;;;2002254;72;21006;-67
2023/12/05 06:28:56;;;;;;;12.28;7.60;;;;;;;;;;2002220;72;21099;-67
2023/12/05 06:31:25;;;;;;;10.55;5.90;;;;;;;;;;2002243;72;21031;-67
2023/12/05 06:33:53;;;;;;;10.20;6.35;;;;;;;;;;2002255;72;21073;-67
2023/12/05 06:36:23;;;;;;;8.65;6.10;;;;;;;;;;2002137;72;20979;-68
2023/12/05 06:38:52;;;;;;;9.35;5.30;;;;;;;;;;2002331;71;21018;-67
2023/12/05 06:41:20;;;;;;;5.45;3.95;;;;;;;;;;2002287;72;21058;-67
2023/12/05 06:43:49;;;;;;;5.58;3.15;;;;;;;;;;2002244;71;21019;-67
2023/12/05 06:46:18;;;;;;;8.70;5.37;;;;;;;;;;2002173;72;21034;-68
2023/12/05 06:48:48;;;;;;;7.85;5.53;;;;;;;;;;2002201;72;21085;-67
2023/12/05 06:51:20;;;;;;;9.70;6.40;;;;;;;;;;2002190;72;20994;-69
2023/12/05 06:53:48;;;;;;;8.10;4.42;;;;;;;;;;2002134;71;21002;-68
2023/12/05 06:56:17;;;;;;;5.87;3.55;;;;;;;;;;2002084;71;21060;-70
2023/12/05 06:58:47;;;;;;;9.68;5.25;;;;;;;;;;2002160;72;21010;-71
2023/12/05 07:01:15;;;;;;;11.28;6.62;;;;;;;;;;2002020;72;21026;-71
2023/12/05 07:03:44;;;;;;;6.80;4.62;;;;;;;;;;2002294;71;21009;-69
2023/12/05 07:06:13;;;;;;;7.28;4.95;;;;;;;;;;2002024;72;21018;-72
2023/12/05 07:08:41;;;;;;;4.75;3.55;;;;;;;;;;2001981;72;21074;-69
2023/12/05 07:11:10;;;;;;;9.73;5.22;;;;;;;;;;2002047;72;21066;-69
2023/12/05 07:13:39;;;;;;;6.70;4.58;;;;;;;;;;2002005;72;21018;-72
2023/12/05 07:16:07;;;;;;;9.13;5.72;;;;;;;;;;2001934;72;21019;-68
2023/12/05 07:18:37;;;;;;;7.30;3.75;;;;;;;;;;2001881;71;21034;-69
2023/12/05 07:21:08;;;;;;;6.15;3.67;;;;;;;;;;1998942;72;21042;-68
2023/12/05 07:23:37;;;;;;;5.87;4.55;;;;;;;;;;1995288;72;20999;-71
2023/12/05 07:26:05;;;;;;;2.25;1.80;;;;;;;;;;1995131;72;21117;-66
2023/12/05 07:28:34;;;;;;;5.85;3.15;;;;;;;;;;1995091;72;21069;-68
2023/12/05 07:31:03;;;;;;;4.15;2.85;;;;;;;;;;1995139;72;21092;-67
2023/12/05 07:33:31;;;;;;;8.18;4.58;;;;;;;;;;1995174;72;21023;-69
2023/12/05 07:36:01;;;;;;;6.30;4.37;;;;;;;;;;1995285;72;21019;-70
2023/12/05 07:38:30;;;;;;;9.18;4.42;;;;;;;;;;1995357;72;21045;-71
2023/12/05 07:40:59;;;;;;;5.78;4.00;;;;;;;;;;1995109;72;21022;-70
2023/12/05 07:43:27;;;;;;;7.20;4.17;;;;;;;;;;1995443;72;21011;-70
2023/12/05 07:45:56;;;;;;;9.35;4.80;;;;;;;;;;1995273;72;21026;-71
2023/12/05 07:48:25;;;;;;;3.58;3.05;;;;;;;;;;1995305;71;21128;-70
2023/12/05 07:50:54;;;;;;;5.67;3.25;;;;;;;;;;1995343;72;21093;-71
2023/12/05 07:53:23;;;;;;;6.37;4.42;;;;;;;;;;2000116;70;21014;-75
2023/12/05 07:55:51;;;;;;;5.78;3.02;;;;;;;;;;2005696;70;20974;-70
2023/12/05 07:58:20;;;;;;;7.20;4.78;;;;;;;;;;2006347;70;21000;-71
2023/12/05 08:00:48;;;;;;;8.13;3.75;;;;;;;;;;2011609;70;20994;-73
2023/12/05 08:03:17;;;;;;;5.90;4.05;;;;;;;;;;2015741;70;21070;-73
2023/12/05 08:05:46;;;;;;;8.85;5.40;;;;;;;;;;2012801;70;21002;-73
2023/12/05 08:08:15;;;;;;;12.30;6.30;;;;;;;;;;2006109;70;21018;-72
2023/12/05 08:10:43;;;;;;;4.42;2.87;;;;;;;;;;2013192;70;21069;-72
2023/12/05 08:13:12;;;;;;;5.70;3.87;;;;;;;;;;2006352;70;21059;-72
2023/12/05 08:15:41;;;;;;;6.90;3.80;;;;;;;;;;2007721;70;21012;-73
2023/12/05 08:18:09;;;;;;;5.40;3.65;;;;;;;;;;2003508;70;21009;-69
2023/12/05 08:20:38;;;;;;;7.17;4.45;;;;;;;;;;1988845;71;21017;-68
2023/12/05 08:23:07;;;;;;;7.35;4.62;;;;;;;;;;1989098;72;21083;-69
2023/12/05 08:25:36;;;;;;;5.90;4.47;;;;;;;;;;1988968;72;21005;-73
2023/12/05 08:28:05;;;;;;;5.87;3.22;;;;;;;;;;1989014;72;21048;-73
2023/12/05 08:30:33;;;;;;;4.95;3.12;;;;;;;;;;2000109;70;21008;-72
2023/12/05 08:33:11;;;;;;;1.57;1.47;;;;;;;;;;1996282;70;20994;-72
2023/12/05 08:35:49;;;;;;;4.08;3.62;;;;;;;;;;2014525;70;21104;-72
2023/12/05 08:38:18;;;;;;;3.80;3.27;;;;;;;;;;1989183;70;20985;-66
2023/12/05 08:40:47;;;;;;;8.03;3.95;;;;;;;;;;2008732;70;21068;-66
2023/12/05 08:43:16;;;;;;;4.85;3.27;;;;;;;;;;2009978;70;21271;-64
2023/12/05 08:45:44;;;;;;;7.37;5.12;;;;;;;;;;2004501;70;21056;-63
2023/12/05 08:48:13;;;;;;;7.12;4.08;;;;;;;;;;1988168;72;21052;-69
2023/12/05 08:50:42;;;;;;;9.28;5.72;;;;;;;;;;1988360;72;20993;-73
2023/12/05 08:53:10;;;;;;;6.28;3.95;;;;;;;;;;1999452;70;21017;-71
2023/12/05 08:55:42;;;;;;;5.00;3.87;;;;;;;;;;2009065;70;21115;-68
2023/12/05 08:58:10;;;;;;;7.12;4.30;;;;;;;;;;2011155;70;22071;-73
2023/12/05 09:00:39;;;;;;;4.15;2.77;;;;;;;;;;2008109;70;21016;-67
2023/12/05 09:03:07;;;;;;;5.90;4.40;;;;;;;;;;2005541;70;21075;-66
2023/12/05 09:05:36;;;;;;;5.35;3.40;;;;;;;;;;2013877;70;21133;-69
2023/12/05 09:08:05;;;;;;;6.72;4.95;;;;;;;;;;2011913;70;21129;-68
2023/12/05 09:10:34;;;;;;;6.67;5.42;;;;;;;;;;2009134;70;21065;-66
2023/12/05 09:13:02;;;;;;;6.03;3.50;;;;;;;;;;1975728;70;21014;-62
2023/12/05 09:15:31;;;;;;;4.92;3.42;;;;;;;;;;1972601;70;21054;-64
2023/12/05 09:17:59;;;;;;;9.95;6.10;;;;;;;;;;2012955;70;20994;-67
2023/12/05 09:20:28;;;;;;;7.10;4.87;;;;;;;;;;2015537;70;21006;-64
2023/12/05 09:22:57;;;;;;;3.08;2.77;;;;;;;;;;1997760;70;21278;-62
2023/12/05 09:25:26;;;;;;;7.12;4.35;;;;;;;;;;1999844;70;21010;-67
2023/12/05 09:27:55;;;;;;;6.17;4.47;;;;;;;;;;2018469;70;21183;-64
2023/12/05 09:30:24;;;;;;;8.83;5.83;;;;;;;;;;2015286;70;21083;-64
2023/12/05 09:32:53;;;;;;;6.17;3.83;;;;;;;;;;2014873;70;21002;-69
2023/12/05 09:35:22;;;;;;;3.52;3.00;;;;;;;;;;1997853;70;21106;-72
2023/12/05 09:37:51;;;;;;;6.80;5.53;;;;;;;;;;2007742;70;20989;-69
2023/12/05 09:40:19;;;;;;;8.18;4.95;;;;;;;;;;2022275;70;21006;-68
2023/12/05 09:45:33;;;;;;;5.50;3.45;;;5.30;86.20;;;;;;1961328;72;27968;-65
2023/12/05 09:48:06;;;;;;;8.48;4.50;;;4.90;89.70;;;;;;1926030;73;21098;-65
2023/12/05 09:50:36;;;;;;;4.83;4.12;;;4.70;90.30;;;;;;1915086;73;21478;-66
2023/12/05 09:53:09;;;;;;;7.60;5.58;;;4.70;90.30;;;;;;1928376;73;21094;-68
2023/12/05 09:55:39;;;;;;;7.75;5.40;;;4.60;90.60;;;;;;1920068;73;21096;-63
2023/12/05 09:58:09;;;;;;;8.25;3.70;;;4.60;90.80;;;;;;1926064;73;21201;-68
2023/12/05 10:00:38;;;;;;;8.18;4.92;;;4.60;90.80;;;;;;1912562;73;21022;-66
2023/12/05 10:03:08;;;;;;;6.08;4.95;;;4.70;91.00;;;;;;1919212;73;21030;-66
2023/12/05 10:05:39;;;;;;;5.22;3.85;;;4.70;90.80;;;;;;1913545;73;21039;-63
2023/12/05 10:08:10;;;;;;;5.37;2.65;;;4.70;90.70;;;;;;1893257;73;21584;-73
2023/12/05 10:10:41;;;;;;;4.67;3.22;;;4.60;90.20;;;;;;1918203;73;21078;-64
2023/12/05 10:13:12;;;;;;;5.72;3.92;;;4.60;90.10;;;;;;1907568;73;21542;-66
2023/12/05 10:15:43;;;;;;;5.78;4.62;;;4.50;90.30;;;;;;1916711;73;21159;-65
2023/12/05 10:18:12;;;;;;;8.53;5.58;;;4.40;90.50;;;;;;1904278;73;21030;-65
2023/12/05 10:20:42;;;;;;;3.60;3.30;;;4.40;90.70;;;;;;1914513;73;21026;-70
2023/12/05 10:23:12;;;;;;;6.87;4.87;;;4.40;91.10;;;;;;1923326;73;21048;-65
2023/12/05 10:25:43;;;;;;;5.50;3.75;;;4.40;91.00;;;;;;1913209;73;21093;-63
2023/12/05 10:28:13;;;;;;;4.25;3.60;;;4.30;90.20;;;;;;1894305;73;21087;-66
2023/12/05 10:30:42;;;;;;;4.83;3.05;;;4.20;90.70;;;;;;1935462;73;21073;-67
2023/12/05 10:33:16;;;;;;;5.83;4.55;;;4.20;91.00;;;;;;1914331;73;21129;-66
2023/12/05 10:35:46;;;;;;;3.25;2.22;;;4.30;91.20;;;;;;1924232;73;21024;-67
2023/12/05 10:38:15;;;;;;;2.77;2.22;;;;;;;;;;1893708;73;21042;-67
2023/12/05 10:40:57;;;;;;;6.20;3.12;;;;;;;;;;1895893;73;21144;-64
2023/12/05 10:43:26;;;;;;;3.20;2.72;;;;;;;;;;1914539;73;21026;-69
2023/12/05 10:45:56;;;;;;;7.03;4.42;;;;;;;;;;1936207;73;21099;-71
2023/12/05 10:48:24;;;;;;;6.75;4.35;;;;;;;;;;1932192;74;21020;-68
2023/12/05 10:50:53;;;;;;;6.55;4.80;;;;;;;;;;1879368;74;21141;-65
2023/12/05 10:53:22;;;;;;;4.75;3.45;;;;;;;;;;1922059;74;21501;-69
2023/12/05 10:55:50;;;;;;;3.45;3.12;;;;;;;;;;1933694;74;21116;-69
2023/12/05 10:58:20;;;;;;;2.22;2.02;;;;;;;;;;1921263;74;21211;-70
2023/12/05 11:00:49;;;;;;;14.83;9.90;;;;;;;;;;1910962;74;21073;-65
2023/12/05 11:03:18;;;;;;;7.53;4.42;;;;;;;;;;1917926;74;21078;-68
2023/12/05 11:05:47;;;;;;;5.65;3.20;;;;;;;;;;1917902;74;21035;-66
2023/12/05 11:08:15;;;;;;;11.88;7.30;;;;;;;;;;1920414;74;21049;-63
2023/12/05 11:10:44;;;;;;;5.35;4.60;;;;;;;;;;1925948;74;21055;-65
2023/12/05 11:13:13;;;;;;;4.90;3.47;;;;;;;;;;1908801;74;21080;-66
2023/12/05 11:15:43;;;;;;;9.20;4.85;;;;;;;;;;1906115;74;21059;-67
2023/12/05 11:18:13;;;;;;;8.53;4.08;;;;;;;;;;1900875;74;21017;-67
2023/12/05 11:20:43;;;;;;;10.03;6.28;;;;;;;;;;1890074;74;21141;-69
2023/12/05 11:23:26;;;;;;;13.10;5.35;;;;;;;;;;1900578;74;21066;-69
2023/12/05 11:25:55;;;;;;;10.45;6.00;;;;;;;;;;1895029;74;21088;-65
2023/12/05 11:28:25;;;;;;;9.38;5.35;;;;;;;;;;1895372;74;21097;-67
2023/12/05 12:43:35;;;;;;;6.10;3.58;;;3.80;91.20;;;;;;1973834;73;25410;-64
2023/12/05 12:46:05;;;;;;;8.60;5.00;;;3.80;91.30;;;;;;1949223;73;21187;-64
2023/12/05 12:48:35;;;;;;;9.60;5.70;;;3.70;91.30;;;;;;1949213;73;21069;-64
2023/12/05 12:51:06;;;;;;;12.82;6.22;;;3.70;91.60;;;;;;1949217;73;21018;-64
2023/12/05 12:53:35;;;;;;;4.42;4.03;;;3.70;91.40;;;;;;1949136;73;21046;-64
2023/12/05 12:56:09;;;;;;;9.83;6.00;;;3.70;91.40;;;;;;1949190;73;21077;-64
2023/12/05 12:58:42;;;;;;;7.63;5.13;;;3.60;91.50;;;;;;1949476;73;21030;-64
2023/12/05 13:01:13;;;;;;;3.85;3.35;;;3.60;91.60;;;;;;1949273;73;21006;-65
2023/12/05 13:03:48;;;;;;;7.37;4.87;;;3.60;91.50;;;;;;1949296;73;21065;-64
2023/12/05 13:06:17;;;;;;;5.53;4.20;;;3.60;91.50;;;;;;1949269;73;21022;-64
2023/12/05 13:08:46;;;;;;;4.03;3.02;;;3.50;91.20;;;;;;1949344;73;21015;-65
2023/12/05 13:11:17;;;;;;;6.92;3.65;;;3.50;91.20;;;;;;1949172;73;21031;-64
2023/12/05 13:13:47;;;;;;;9.20;5.25;;;3.50;91.60;;;;;;1949366;73;21003;-64
2023/12/05 13:16:16;;;;;;;5.55;3.55;;;3.50;91.60;;;;;;1949251;73;20998;-65
2023/12/05 13:18:47;;;;;;;4.53;3.87;;;3.50;91.20;;;;;;1949389;73;21086;-65
2023/12/05 13:21:16;;;;;;;10.35;5.35;;;3.40;90.80;;;;;;1949139;73;21027;-65
2023/12/05 13:23:45;;;;;;;4.85;2.90;;;3.40;91.10;;;;;;1949228;73;21135;-64
2023/12/05 13:26:15;;;;;;;6.42;4.42;;;3.40;91.00;;;;;;1949106;73;21149;-65
2023/12/05 13:28:44;;;;;;;7.22;5.03;;;3.40;91.60;;;;;;1949160;73;21007;-65
2023/12/05 13:31:13;;;;;;;11.45;5.67;;;3.40;91.20;;;;;;1949101;73;21109;-64
2023/12/05 13:33:43;;;;;;;13.15;6.37;;;3.40;91.50;;;;;;1949207;73;21026;-64
2023/12/05 13:36:12;;;;;;;9.23;5.35;;;3.40;91.40;;;;;;1949085;73;21022;-65
2023/12/05 13:38:42;;;;;;;6.97;3.58;;;3.40;91.20;;;;;;1949213;73;21018;-65
2023/12/05 13:41:11;;;;;;;4.70;4.25;;;3.40;91.40;;;;;;1949125;73;21023;-65
2023/12/05 13:43:41;;;;;;;7.87;5.30;;;3.40;91.50;;;;;;1939132;73;21046;-65
2023/12/05 13:46:14;;;;;;;7.15;5.50;;;3.40;91.60;;;;;;1936281;74;21067;-64
2023/12/05 13:48:42;;;;;;;7.05;5.35;;;3.40;91.50;;;;;;1936212;74;21039;-64
2023/12/05 13:51:12;;;;;;;7.10;4.95;;;3.40;91.70;;;;;;1935785;74;21024;-64
2023/12/05 13:53:43;;;;;;;6.37;4.78;;;3.40;91.80;;;;;;1936076;74;21077;-65
2023/12/05 13:56:12;;;;;;;14.90;8.88;;;3.30;91.90;;;;;;1935688;74;21145;-64
2023/12/05 13:58:43;;;;;;;4.33;3.90;;;3.30;92.20;;;;;;1935803;74;20983;-64
2023/12/05 14:01:12;;;;;;;11.75;7.40;;;3.30;92.30;;;;;;1935806;74;21043;-65
2023/12/05 14:03:41;;;;;;;10.38;6.20;;;3.30;92.40;;;;;;1935775;74;21016;-64
2023/12/05 14:06:10;;;;;;;12.68;7.70;;;3.30;92.40;;;;;;1935659;74;21007;-64
2023/12/05 14:08:39;;;;;;;6.40;4.03;;;3.30;92.60;;;;;;1935640;74;21457;-65
2023/12/05 14:11:08;;;;;;;14.55;7.87;;;3.20;92.70;;;;;;1935759;74;21035;-64
2023/12/05 14:13:38;;;;;;;6.75;5.10;;;3.20;92.60;;;;;;1935750;74;21070;-64
2023/12/05 14:16:08;;;;;;;6.08;4.53;;;3.20;92.30;;;;;;1935738;74;21091;-64
2023/12/05 14:18:37;;;;;;;9.70;6.05;;;3.20;92.40;;;;;;1935783;74;21085;-64
2023/12/05 14:21:07;;;;;;;12.78;6.85;;;3.10;92.20;;;;;;1935681;74;21062;-64
2023/12/05 14:23:36;;;;;;;8.33;5.30;;;3.10;92.30;;;;;;1935754;74;21104;-64
2023/12/05 14:26:05;;;;;;;12.28;6.80;;;3.00;92.30;;;;;;1935742;74;21023;-64
2023/12/05 14:28:35;;;;;;;14.07;7.55;;;3.00;92.10;;;;;;1935768;74;21007;-64
2023/12/05 14:31:04;;;;;;;7.53;5.47;;;2.90;92.30;;;;;;1935747;74;21012;-64
2023/12/05 14:33:33;;;;;;;6.33;4.00;;;3.00;92.30;;;;;;1935733;74;21085;-65
2023/12/05 14:36:02;;;;;;;15.13;7.15;;;3.00;92.20;;;;;;1935610;74;21004;-64
2023/12/05 14:38:32;;;;;;;19.25;9.58;;;2.90;92.30;;;;;;1935672;74;21061;-64
2023/12/05 14:41:09;;;;;;;8.40;5.97;;;2.90;92.50;;;;;;1906636;72;21037;-64
2023/12/05 14:43:39;;;;;;;9.83;6.62;;;2.90;92.40;;;;;;1906328;74;21020;-64
2023/12/05 14:46:09;;;;;;;11.05;6.47;;;2.90;92.70;;;;;;1906306;75;21083;-64
2023/12/05 14:48:38;;;;;;;12.50;7.53;;;2.80;92.70;;;;;;1906391;75;21017;-64
2023/12/05 14:51:08;;;;;;;8.80;6.03;;;2.90;92.90;;;;;;1906323;74;21032;-64
2023/12/05 14:53:37;;;;;;;12.98;8.15;;;2.80;93.00;;;;;;1906377;75;21064;-63
2023/12/05 14:56:07;;;;;;;11.78;6.00;;;2.80;93.20;;;;;;1906429;74;21110;-64
2023/12/05 14:58:37;;;;;;;13.25;7.60;;;2.80;93.10;;;;;;1906337;75;21052;-64
2023/12/05 15:01:06;;;;;;;16.80;9.75;;;2.80;93.00;;;;;;1906248;74;21029;-64
2023/12/05 15:03:36;;;;;;;7.00;4.47;;;2.80;93.10;;;;;;1906380;74;21068;-64
2023/12/05 15:06:06;;;;;;;10.43;5.47;;;2.80;93.40;;;;;;1906219;75;21072;-64
2023/12/05 15:08:35;;;;;;;10.48;7.78;;;2.90;93.30;;;;;;1906308;74;21064;-64
2023/12/05 15:11:05;;;;;;;8.85;6.90;;;2.90;93.30;;;;;;1906296;75;21095;-64
2023/12/05 15:13:34;;;;;;;13.70;6.85;;;2.80;93.30;;;;;;1906234;75;21147;-63
2023/12/05 15:16:03;;;;;;;7.55;4.92;;;2.80;93.30;;;;;;1906221;74;21103;-64
2023/12/05 15:18:32;;;;;;;7.95;3.22;;;2.80;92.90;;;;;;1906406;75;21017;-64
2023/12/05 15:21:03;;;;;;;10.40;6.87;;;2.80;93.10;;;;;;1906393;74;21021;-64
2023/12/05 15:23:32;;;;;;;14.95;6.67;;;2.80;93.40;;;;;;1906395;75;21025;-64
2023/12/05 15:26:01;;;;;;;7.50;4.67;;;2.70;93.00;;;;;;1906252;75;21060;-64
2023/12/05 15:28:33;;;;;;;11.00;5.95;;;2.60;93.00;;;;;;1906329;75;21021;-64
2023/12/05 15:31:02;;;;;;;7.55;5.25;;;2.60;93.10;;;;;;1906279;75;21029;-64
2023/12/05 15:33:31;;;;;;;5.53;3.95;;;2.60;93.20;;;;;;1906260;74;21127;-64